sensor_id;sensor_type;location;lat;lon;timestamp;pressure;altitude;pressure_sealevel;temperature;humidity
49393;BME280;35268;42.642;23.308;2022-08-23T00:01:30;93436.94;;;18.62;81.25
49393;BME280;35268;42.642;23.308;2022-08-23T00:04:02;93430.00;;;18.65;80.95
49393;BME280;35268;42.642;23.308;2022-08-23T00:06:28;93437.72;;;18.67;80.98
49393;BME280;35268;42.642;23.308;2022-08-23T00:08:54;93441.59;;;18.69;80.90
49393;BME280;35268;42.642;23.308;2022-08-23T00:11:47;93455.13;;;18.73;80.46
49393;BME280;35268;42.642;23.308;2022-08-23T00:14:25;93453.19;;;18.73;80.42
49393;BME280;35268;42.642;23.308;2022-08-23T00:16:52;93453.59;;;18.75;80.33
49393;BME280;35268;42.642;23.308;2022-08-23T00:19:19;93453.25;;;18.80;80.47
49393;BME280;35268;42.642;23.308;2022-08-23T00:21:46;93453.28;;;18.84;80.50
49393;BME280;35268;42.642;23.308;2022-08-23T00:24:12;93443.28;;;18.88;80.85
49393;BME280;35268;42.642;23.308;2022-08-23T00:29:16;93442.91;;;18.86;80.51
49393;BME280;35268;42.642;23.308;2022-08-23T00:31:42;93440.19;;;18.86;80.44
49393;BME280;35268;42.642;23.308;2022-08-23T00:34:07;93435.97;;;18.85;80.41
49393;BME280;35268;42.642;23.308;2022-08-23T00:36:33;93445.19;;;18.84;80.42
49393;BME280;35268;42.642;23.308;2022-08-23T00:38:58;93452.56;;;18.87;80.05
49393;BME280;35268;42.642;23.308;2022-08-23T00:41:24;93442.53;;;18.88;80.03
49393;BME280;35268;42.642;23.308;2022-08-23T00:43:51;93440.97;;;18.87;79.92
49393;BME280;35268;42.642;23.308;2022-08-23T00:46:53;93429.41;;;18.86;79.90
49393;BME280;35268;42.642;23.308;2022-08-23T00:49:40;93427.06;;;18.84;79.86
49393;BME280;35268;42.642;23.308;2022-08-23T00:52:20;93434.41;;;18.84;79.77
49393;BME280;35268;42.642;23.308;2022-08-23T00:54:49;93437.09;;;18.84;79.15
49393;BME280;35268;42.642;23.308;2022-08-23T00:57:16;93439.00;;;18.80;78.89
49393;BME280;35268;42.642;23.308;2022-08-23T00:59:44;93443.19;;;18.77;79.27
49393;BME280;35268;42.642;23.308;2022-08-23T01:02:10;93444.34;;;18.73;79.51
49393;BME280;35268;42.642;23.308;2022-08-23T01:04:44;93439.66;;;18.70;79.78
49393;BME280;35268;42.642;23.308;2022-08-23T01:07:26;93446.22;;;18.69;80.21
49393;BME280;35268;42.642;23.308;2022-08-23T01:09:56;93445.44;;;18.68;80.46
49393;BME280;35268;42.642;23.308;2022-08-23T01:12:33;93449.66;;;18.65;80.47
49393;BME280;35268;42.642;23.308;2022-08-23T01:15:09;93446.97;;;18.65;80.41
49393;BME280;35268;42.642;23.308;2022-08-23T01:17:47;93448.53;;;18.67;80.71
49393;BME280;35268;42.642;23.308;2022-08-23T01:20:17;93448.50;;;18.63;80.48
49393;BME280;35268;42.642;23.308;2022-08-23T01:23:03;93455.81;;;18.62;80.43
49393;BME280;35268;42.642;23.308;2022-08-23T01:25:32;93458.13;;;18.60;80.65
49393;BME280;35268;42.642;23.308;2022-08-23T01:27:58;93456.63;;;18.67;80.37
49393;BME280;35268;42.642;23.308;2022-08-23T01:30:28;93452.34;;;18.65;80.46
49393;BME280;35268;42.642;23.308;2022-08-23T01:32:57;93455.47;;;18.68;80.54
49393;BME280;35268;42.642;23.308;2022-08-23T01:35:37;93455.41;;;18.60;80.88
49393;BME280;35268;42.642;23.308;2022-08-23T01:38:05;93448.44;;;18.59;81.10
49393;BME280;35268;42.642;23.308;2022-08-23T01:40:31;93445.38;;;18.61;81.00
49393;BME280;35268;42.642;23.308;2022-08-23T01:42:57;93451.16;;;18.59;80.62
49393;BME280;35268;42.642;23.308;2022-08-23T01:45:23;93437.66;;;18.59;81.10
49393;BME280;35268;42.642;23.308;2022-08-23T01:47:48;93455.06;;;18.65;81.02
49393;BME280;35268;42.642;23.308;2022-08-23T01:50:14;93454.69;;;18.67;81.00
49393;BME280;35268;42.642;23.308;2022-08-23T01:52:41;93458.97;;;18.72;81.37
49393;BME280;35268;42.642;23.308;2022-08-23T01:55:07;93456.66;;;18.74;81.15
49393;BME280;35268;42.642;23.308;2022-08-23T01:57:33;93451.72;;;18.79;81.34
49393;BME280;35268;42.642;23.308;2022-08-23T01:59:59;93445.56;;;18.82;81.39
49393;BME280;35268;42.642;23.308;2022-08-23T02:02:25;93456.00;;;18.84;81.19
49393;BME280;35268;42.642;23.308;2022-08-23T02:04:50;93444.47;;;18.87;81.38
49393;BME280;35268;42.642;23.308;2022-08-23T02:07:16;93431.31;;;18.86;81.11
49393;BME280;35268;42.642;23.308;2022-08-23T02:09:42;93439.81;;;18.88;80.60
49393;BME280;35268;42.642;23.308;2022-08-23T02:12:07;93438.69;;;18.92;80.15
49393;BME280;35268;42.642;23.308;2022-08-23T02:14:33;93442.97;;;18.93;80.00
49393;BME280;35268;42.642;23.308;2022-08-23T02:16:59;93440.66;;;18.95;79.27
49393;BME280;35268;42.642;23.308;2022-08-23T02:19:25;93433.34;;;18.99;78.65
49393;BME280;35268;42.642;23.308;2022-08-23T02:21:50;93429.47;;;19.00;77.96
49393;BME280;35268;42.642;23.308;2022-08-23T02:24:19;93438.38;;;19.04;77.57
49393;BME280;35268;42.642;23.308;2022-08-23T02:26:50;93437.66;;;19.08;77.26
49393;BME280;35268;42.642;23.308;2022-08-23T02:29:18;93433.41;;;19.10;77.14
49393;BME280;35268;42.642;23.308;2022-08-23T02:31:44;93428.00;;;19.10;75.99
49393;BME280;35268;42.642;23.308;2022-08-23T02:34:11;93423.41;;;19.14;74.47
49393;BME280;35268;42.642;23.308;2022-08-23T02:36:37;93420.72;;;19.18;73.64
49393;BME280;35268;42.642;23.308;2022-08-23T02:39:04;93414.56;;;19.21;72.62
49393;BME280;35268;42.642;23.308;2022-08-23T02:41:30;93410.34;;;19.27;72.40
49393;BME280;35268;42.642;23.308;2022-08-23T02:43:56;93417.31;;;19.32;72.77
49393;BME280;35268;42.642;23.308;2022-08-23T02:46:22;93418.88;;;19.36;72.62
49393;BME280;35268;42.642;23.308;2022-08-23T02:48:48;93416.56;;;19.38;72.65
49393;BME280;35268;42.642;23.308;2022-08-23T02:51:14;93420.81;;;19.39;73.17
49393;BME280;35268;42.642;23.308;2022-08-23T02:53:41;93421.59;;;19.36;73.88
49393;BME280;35268;42.642;23.308;2022-08-23T02:56:07;93422.31;;;19.33;75.02
49393;BME280;35268;42.642;23.308;2022-08-23T02:58:32;93425.00;;;19.26;75.42
49393;BME280;35268;42.642;23.308;2022-08-23T03:00:58;93421.88;;;19.20;75.66
49393;BME280;35268;42.642;23.308;2022-08-23T03:03:24;93424.97;;;19.15;75.85
49393;BME280;35268;42.642;23.308;2022-08-23T03:05:51;93421.06;;;19.09;76.00
49393;BME280;35268;42.642;23.308;2022-08-23T03:08:17;93411.78;;;19.07;75.64
49393;BME280;35268;42.642;23.308;2022-08-23T03:10:45;93414.06;;;19.04;75.31
49393;BME280;35268;42.642;23.308;2022-08-23T03:13:10;93407.50;;;19.02;75.00
49393;BME280;35268;42.642;23.308;2022-08-23T03:15:37;93400.94;;;18.99;74.77
49393;BME280;35268;42.642;23.308;2022-08-23T03:18:02;93409.41;;;18.98;74.79
49393;BME280;35268;42.642;23.308;2022-08-23T03:20:28;93409.03;;;18.99;74.84
49393;BME280;35268;42.642;23.308;2022-08-23T03:22:53;93402.88;;;19.02;73.94
49393;BME280;35268;42.642;23.308;2022-08-23T03:25:19;93402.53;;;19.08;73.07
49393;BME280;35268;42.642;23.308;2022-08-23T03:27:45;93400.25;;;19.13;72.16
49393;BME280;35268;42.642;23.308;2022-08-23T03:30:11;93420.75;;;19.21;71.34
49393;BME280;35268;42.642;23.308;2022-08-23T03:32:36;93421.94;;;19.28;71.24
49393;BME280;35268;42.642;23.308;2022-08-23T03:35:02;93424.25;;;19.33;71.38
49393;BME280;35268;42.642;23.308;2022-08-23T03:37:29;93411.91;;;19.35;71.99
49393;BME280;35268;42.642;23.308;2022-08-23T03:39:54;93415.00;;;19.37;71.85
49393;BME280;35268;42.642;23.308;2022-08-23T03:42:19;93427.38;;;19.38;70.32
49393;BME280;35268;42.642;23.308;2022-08-23T03:44:45;93429.72;;;19.40;67.70
49393;BME280;35268;42.642;23.308;2022-08-23T03:47:10;93431.28;;;19.44;67.12
49393;BME280;35268;42.642;23.308;2022-08-23T03:49:37;93441.72;;;19.50;66.86
49393;BME280;35268;42.642;23.308;2022-08-23T03:52:03;93442.50;;;19.50;66.21
49393;BME280;35268;42.642;23.308;2022-08-23T03:54:30;93447.91;;;19.54;66.43
49393;BME280;35268;42.642;23.308;2022-08-23T03:56:57;93451.41;;;19.58;66.39
49393;BME280;35268;42.642;23.308;2022-08-23T03:59:26;93461.84;;;19.63;66.40
49393;BME280;35268;42.642;23.308;2022-08-23T04:01:52;93468.06;;;19.67;66.75
49393;BME280;35268;42.642;23.308;2022-08-23T04:04:18;93469.19;;;19.66;66.38
49393;BME280;35268;42.642;23.308;2022-08-23T04:06:43;93483.13;;;19.64;66.60
49393;BME280;35268;42.642;23.308;2022-08-23T04:09:12;93491.63;;;19.67;66.21
49393;BME280;35268;42.642;23.308;2022-08-23T04:11:38;93503.94;;;19.64;66.38
49393;BME280;35268;42.642;23.308;2022-08-23T04:14:04;93502.34;;;19.49;71.28
49393;BME280;35268;42.642;23.308;2022-08-23T04:16:31;93507.25;;;19.32;72.72
49393;BME280;35268;42.642;23.308;2022-08-23T04:19:03;93501.69;;;19.11;74.59
49393;BME280;35268;42.642;23.308;2022-08-23T04:21:29;93511.97;;;18.91;75.55
49393;BME280;35268;42.642;23.308;2022-08-23T04:23:55;93510.25;;;18.72;76.56
49393;BME280;35268;42.642;23.308;2022-08-23T04:26:21;93514.06;;;18.67;77.30
49393;BME280;35268;42.642;23.308;2022-08-23T04:28:46;93510.50;;;18.56;77.59
49393;BME280;35268;42.642;23.308;2022-08-23T04:31:12;93516.19;;;18.47;77.99
49393;BME280;35268;42.642;23.308;2022-08-23T04:33:38;93525.69;;;18.34;77.91
49393;BME280;35268;42.642;23.308;2022-08-23T04:36:03;93521.88;;;18.35;78.33
49393;BME280;35268;42.642;23.308;2022-08-23T04:38:29;93518.75;;;18.33;78.24
49393;BME280;35268;42.642;23.308;2022-08-23T04:40:55;93526.84;;;18.33;78.20
49393;BME280;35268;42.642;23.308;2022-08-23T04:43:40;93516.06;;;18.33;78.09
49393;BME280;35268;42.642;23.308;2022-08-23T04:46:07;93520.28;;;18.34;78.62
49393;BME280;35268;42.642;23.308;2022-08-23T04:48:32;93530.28;;;18.30;78.74
49393;BME280;35268;42.642;23.308;2022-08-23T04:50:58;93522.59;;;18.32;78.94
49393;BME280;35268;42.642;23.308;2022-08-23T04:53:23;93529.16;;;18.31;79.15
49393;BME280;35268;42.642;23.308;2022-08-23T04:55:49;93531.38;;;18.25;79.17
49393;BME280;35268;42.642;23.308;2022-08-23T04:58:17;93527.16;;;18.28;79.75
49393;BME280;35268;42.642;23.308;2022-08-23T05:00:43;93540.72;;;18.31;80.10
49393;BME280;35268;42.642;23.308;2022-08-23T05:03:08;93528.78;;;18.32;79.66
49393;BME280;35268;42.642;23.308;2022-08-23T05:05:33;93536.16;;;18.39;78.95
49393;BME280;35268;42.642;23.308;2022-08-23T05:07:59;93545.81;;;18.40;78.86
49393;BME280;35268;42.642;23.308;2022-08-23T05:10:25;93540.50;;;18.47;78.76
49393;BME280;35268;42.642;23.308;2022-08-23T05:12:50;93552.91;;;18.55;79.17
49393;BME280;35268;42.642;23.308;2022-08-23T05:15:16;93553.34;;;18.61;78.15
49393;BME280;35268;42.642;23.308;2022-08-23T05:17:42;93553.81;;;18.70;78.07
49393;BME280;35268;42.642;23.308;2022-08-23T05:20:08;93550.03;;;18.78;77.36
49393;BME280;35268;42.642;23.308;2022-08-23T05:22:36;93566.72;;;18.88;77.07
49393;BME280;35268;42.642;23.308;2022-08-23T05:25:05;93567.97;;;18.97;76.99
49393;BME280;35268;42.642;23.308;2022-08-23T05:27:31;93566.50;;;19.03;77.08
49393;BME280;35268;42.642;23.308;2022-08-23T05:29:57;93573.13;;;19.13;76.68
49393;BME280;35268;42.642;23.308;2022-08-23T05:32:22;93562.41;;;19.24;76.19
49393;BME280;35268;42.642;23.308;2022-08-23T05:34:48;93561.69;;;19.34;76.18
49393;BME280;35268;42.642;23.308;2022-08-23T05:37:14;93559.44;;;19.43;75.51
49393;BME280;35268;42.642;23.308;2022-08-23T05:39:40;93561.03;;;19.52;75.67
49393;BME280;35268;42.642;23.308;2022-08-23T05:42:09;93558.72;;;19.54;75.24
49393;BME280;35268;42.642;23.308;2022-08-23T05:44:34;93569.59;;;19.61;75.11
49393;BME280;35268;42.642;23.308;2022-08-23T05:47:00;93567.63;;;19.58;75.44
49393;BME280;35268;42.642;23.308;2022-08-23T05:49:26;93563.00;;;19.62;76.05
49393;BME280;35268;42.642;23.308;2022-08-23T05:51:51;93570.38;;;19.65;75.19
49393;BME280;35268;42.642;23.308;2022-08-23T05:54:17;93565.78;;;19.69;75.26
49393;BME280;35268;42.642;23.308;2022-08-23T05:56:42;93566.59;;;19.73;75.42
49393;BME280;35268;42.642;23.308;2022-08-23T05:59:11;93571.66;;;19.82;73.80
49393;BME280;35268;42.642;23.308;2022-08-23T06:01:37;93570.16;;;19.84;73.51
49393;BME280;35268;42.642;23.308;2022-08-23T06:04:05;93575.94;;;19.83;73.73
49393;BME280;35268;42.642;23.308;2022-08-23T06:06:31;93577.47;;;19.80;73.71
49393;BME280;35268;42.642;23.308;2022-08-23T06:08:57;93579.84;;;19.93;74.22
49393;BME280;35268;42.642;23.308;2022-08-23T06:11:25;93582.97;;;20.02;73.19
49393;BME280;35268;42.642;23.308;2022-08-23T06:13:54;93581.06;;;20.10;72.14
49393;BME280;35268;42.642;23.308;2022-08-23T06:16:24;93585.31;;;20.07;72.85
49393;BME280;35268;42.642;23.308;2022-08-23T06:18:51;93583.75;;;20.06;73.37
49393;BME280;35268;42.642;23.308;2022-08-23T06:21:17;93593.03;;;20.05;73.16
49393;BME280;35268;42.642;23.308;2022-08-23T06:23:44;93583.34;;;19.97;73.55
49393;BME280;35268;42.642;23.308;2022-08-23T06:26:39;93590.28;;;19.98;74.18
49393;BME280;35268;42.642;23.308;2022-08-23T06:29:07;93602.28;;;19.97;73.51
49393;BME280;35268;42.642;23.308;2022-08-23T06:31:33;93601.88;;;19.95;73.61
49393;BME280;35268;42.642;23.308;2022-08-23T06:34:19;93602.25;;;19.93;73.60
49393;BME280;35268;42.642;23.308;2022-08-23T06:36:46;93596.84;;;19.93;73.66
49393;BME280;35268;42.642;23.308;2022-08-23T06:39:14;93594.50;;;19.92;73.29
49393;BME280;35268;42.642;23.308;2022-08-23T06:41:40;93599.13;;;19.88;73.90
49393;BME280;35268;42.642;23.308;2022-08-23T06:44:06;93606.13;;;19.96;74.36
49393;BME280;35268;42.642;23.308;2022-08-23T06:46:33;93614.72;;;20.12;73.95
49393;BME280;35268;42.642;23.308;2022-08-23T06:48:59;93613.97;;;20.15;72.04
49393;BME280;35268;42.642;23.308;2022-08-23T06:51:47;93621.38;;;20.33;71.33
49393;BME280;35268;42.642;23.308;2022-08-23T06:54:13;93614.06;;;20.44;71.50
49393;BME280;35268;42.642;23.308;2022-08-23T06:56:41;93618.78;;;20.58;70.86
49393;BME280;35268;42.642;23.308;2022-08-23T06:59:07;93612.63;;;20.68;70.71
49393;BME280;35268;42.642;23.308;2022-08-23T07:01:40;93607.59;;;20.74;70.69
49393;BME280;35268;42.642;23.308;2022-08-23T07:04:09;93607.63;;;20.77;70.62
49393;BME280;35268;42.642;23.308;2022-08-23T07:06:35;93611.09;;;20.81;69.95
49393;BME280;35268;42.642;23.308;2022-08-23T07:09:03;93616.94;;;20.91;69.58
49393;BME280;35268;42.642;23.308;2022-08-23T07:11:30;93620.84;;;21.00;69.66
49393;BME280;35268;42.642;23.308;2022-08-23T07:13:57;93608.81;;;20.94;68.99
49393;BME280;35268;42.642;23.308;2022-08-23T07:16:25;93610.38;;;20.95;68.66
49393;BME280;35268;42.642;23.308;2022-08-23T07:18:51;93619.28;;;21.07;69.46
49393;BME280;35268;42.642;23.308;2022-08-23T07:21:19;93611.53;;;21.16;67.38
49393;BME280;35268;42.642;23.308;2022-08-23T07:23:48;93608.84;;;21.16;67.03
49393;BME280;35268;42.642;23.308;2022-08-23T07:26:15;93617.38;;;21.11;67.35
49393;BME280;35268;42.642;23.308;2022-08-23T07:28:41;93610.78;;;21.12;67.12
49393;BME280;35268;42.642;23.308;2022-08-23T07:31:10;93620.06;;;21.14;67.02
49393;BME280;35268;42.642;23.308;2022-08-23T07:33:36;93613.47;;;21.12;66.80
49393;BME280;35268;42.642;23.308;2022-08-23T07:36:02;93615.41;;;21.08;67.17
49393;BME280;35268;42.642;23.308;2022-08-23T07:38:28;93617.75;;;21.13;67.94
49393;BME280;35268;42.642;23.308;2022-08-23T07:40:54;93625.88;;;21.20;67.61
49393;BME280;35268;42.642;23.308;2022-08-23T07:43:19;93620.06;;;21.29;67.46
49393;BME280;35268;42.642;23.308;2022-08-23T07:45:47;93625.50;;;21.43;66.79
49393;BME280;35268;42.642;23.308;2022-08-23T07:48:13;93622.81;;;21.64;66.51
49393;BME280;35268;42.642;23.308;2022-08-23T07:50:39;93617.38;;;21.82;65.10
49393;BME280;35268;42.642;23.308;2022-08-23T07:53:06;93622.38;;;21.95;63.98
49393;BME280;35268;42.642;23.308;2022-08-23T07:55:31;93619.63;;;22.02;64.14
49393;BME280;35268;42.642;23.308;2022-08-23T07:57:57;93626.63;;;22.03;63.88
49393;BME280;35268;42.642;23.308;2022-08-23T08:00:22;93635.50;;;22.14;63.39
49393;BME280;35268;42.642;23.308;2022-08-23T08:02:48;93635.09;;;22.23;62.81
49393;BME280;35268;42.642;23.308;2022-08-23T08:05:13;93632.00;;;22.35;63.23
49393;BME280;35268;42.642;23.308;2022-08-23T08:07:39;93636.97;;;22.51;62.20
49393;BME280;35268;42.642;23.308;2022-08-23T08:10:05;93632.31;;;22.52;61.73
49393;BME280;35268;42.642;23.308;2022-08-23T08:12:30;93639.31;;;22.49;61.68
49393;BME280;35268;42.642;23.308;2022-08-23T08:14:57;93645.91;;;22.52;61.42
49393;BME280;35268;42.642;23.308;2022-08-23T08:17:23;93648.59;;;22.55;62.09
49393;BME280;35268;42.642;23.308;2022-08-23T08:19:48;93640.00;;;22.68;62.35
49393;BME280;35268;42.642;23.308;2022-08-23T08:22:13;93658.13;;;22.89;61.32
49393;BME280;35268;42.642;23.308;2022-08-23T08:24:39;93658.06;;;23.10;60.94
49393;BME280;35268;42.642;23.308;2022-08-23T08:27:05;93661.13;;;23.16;59.63
49393;BME280;35268;42.642;23.308;2022-08-23T08:29:30;93652.63;;;23.10;59.32
49393;BME280;35268;42.642;23.308;2022-08-23T08:31:56;93658.16;;;22.81;60.66
49393;BME280;35268;42.642;23.308;2022-08-23T08:34:22;93657.75;;;22.90;59.79
49393;BME280;35268;42.642;23.308;2022-08-23T08:39:32;93667.44;;;22.91;59.74
49393;BME280;35268;42.642;23.308;2022-08-23T08:42:20;93654.19;;;23.00;59.37
49393;BME280;35268;42.642;23.308;2022-08-23T08:44:48;93653.00;;;23.12;59.75
49393;BME280;35268;42.642;23.308;2022-08-23T08:49:52;93651.31;;;23.29;59.09
49393;BME280;35268;42.642;23.308;2022-08-23T08:52:23;93647.50;;;23.23;59.00
49393;BME280;35268;42.642;23.308;2022-08-23T08:54:54;93646.34;;;23.20;59.00
49393;BME280;35268;42.642;23.308;2022-08-23T08:57:22;93642.09;;;23.16;60.97
49393;BME280;35268;42.642;23.308;2022-08-23T08:59:59;93642.84;;;23.20;59.59
49393;BME280;35268;42.642;23.308;2022-08-23T09:02:30;93642.34;;;23.36;59.33
49393;BME280;35268;42.642;23.308;2022-08-23T09:04:57;93632.13;;;23.51;59.10
49393;BME280;35268;42.642;23.308;2022-08-23T09:08:08;93618.78;;;23.67;58.19
49393;BME280;35268;42.642;23.308;2022-08-23T09:10:48;93613.28;;;23.78;58.31
49393;BME280;35268;42.642;23.308;2022-08-23T09:19:04;93617.88;;;23.85;56.04
49393;BME280;35268;42.642;23.308;2022-08-23T09:21:44;93605.03;;;23.85;56.75
49393;BME280;35268;42.642;23.308;2022-08-23T09:24:10;93608.50;;;23.89;55.90
49393;BME280;35268;42.642;23.308;2022-08-23T09:26:36;93598.34;;;23.93;55.96
49393;BME280;35268;42.642;23.308;2022-08-23T09:29:23;93605.59;;;24.07;56.06
49393;BME280;35268;42.642;23.308;2022-08-23T09:31:54;93603.16;;;24.16;55.79
49393;BME280;35268;42.642;23.308;2022-08-23T09:34:42;93610.44;;;24.27;55.25
49393;BME280;35268;42.642;23.308;2022-08-23T09:37:19;93608.13;;;24.25;56.31
49393;BME280;35268;42.642;23.308;2022-08-23T09:40:11;93611.16;;;24.34;56.01
49393;BME280;35268;42.642;23.308;2022-08-23T09:42:37;93602.47;;;24.43;55.60
49393;BME280;35268;42.642;23.308;2022-08-23T09:45:27;93613.34;;;24.47;55.28
49393;BME280;35268;42.642;23.308;2022-08-23T09:47:53;93622.31;;;24.43;54.99
49393;BME280;35268;42.642;23.308;2022-08-23T09:52:47;93616.50;;;24.41;54.67
49393;BME280;35268;42.642;23.308;2022-08-23T09:55:31;93623.44;;;24.46;54.47
49393;BME280;35268;42.642;23.308;2022-08-23T09:57:59;93625.75;;;24.51;54.18
49393;BME280;35268;42.642;23.308;2022-08-23T10:00:30;93625.97;;;24.64;53.79
49393;BME280;35268;42.642;23.308;2022-08-23T10:03:18;93617.72;;;24.71;53.59
49393;BME280;35268;42.642;23.308;2022-08-23T10:05:49;93611.78;;;24.80;53.60
49393;BME280;35268;42.642;23.308;2022-08-23T10:08:23;93619.09;;;24.83;53.21
49393;BME280;35268;42.642;23.308;2022-08-23T10:10:51;93620.66;;;24.84;54.14
49393;BME280;35268;42.642;23.308;2022-08-23T10:13:18;93617.09;;;24.87;52.97
49393;BME280;35268;42.642;23.308;2022-08-23T10:21:35;93610.91;;;25.14;51.15
49393;BME280;35268;42.642;23.308;2022-08-23T10:30:04;93608.03;;;24.97;50.20
49393;BME280;35268;42.642;23.308;2022-08-23T10:38:03;93609.19;;;24.69;50.88
49393;BME280;35268;42.642;23.308;2022-08-23T10:40:45;93602.59;;;24.67;50.91
49393;BME280;35268;42.642;23.308;2022-08-23T10:46:00;93599.28;;;24.48;53.73
49393;BME280;35268;42.642;23.308;2022-08-23T10:48:42;93601.28;;;24.44;54.10
49393;BME280;35268;42.642;23.308;2022-08-23T10:51:25;93594.72;;;24.41;52.89
49393;BME280;35268;42.642;23.308;2022-08-23T10:53:58;93597.84;;;24.40;52.05
49393;BME280;35268;42.642;23.308;2022-08-23T10:56:27;93608.31;;;24.41;52.85
49393;BME280;35268;42.642;23.308;2022-08-23T10:59:03;93591.19;;;24.45;52.53
49393;BME280;35268;42.642;23.308;2022-08-23T11:01:51;93599.72;;;24.47;54.47
49393;BME280;35268;42.642;23.308;2022-08-23T11:07:19;93597.31;;;24.52;53.31
49393;BME280;35268;42.642;23.308;2022-08-23T11:09:52;93605.00;;;24.61;55.65
49393;BME280;35268;42.642;23.308;2022-08-23T11:12:25;93595.97;;;24.68;53.24
49393;BME280;35268;42.642;23.308;2022-08-23T11:23:42;93591.78;;;24.59;60.21
49393;BME280;35268;42.642;23.308;2022-08-23T11:26:10;93592.97;;;24.58;59.33
49393;BME280;35268;42.642;23.308;2022-08-23T11:31:33;93603.50;;;24.56;58.27
49393;BME280;35268;42.642;23.308;2022-08-23T11:34:04;93594.41;;;24.67;58.68
49393;BME280;35268;42.642;23.308;2022-08-23T11:36:32;93588.16;;;24.70;54.42
49393;BME280;35268;42.642;23.308;2022-08-23T11:38:58;93587.78;;;24.68;60.31
49393;BME280;35268;42.642;23.308;2022-08-23T11:41:29;93592.41;;;24.71;57.59
49393;BME280;35268;42.642;23.308;2022-08-23T11:51:32;93573.84;;;24.28;60.30
49393;BME280;35268;42.642;23.308;2022-08-23T11:57:12;93577.56;;;24.10;60.47
49393;BME280;35268;42.642;23.308;2022-08-23T12:00:03;93586.84;;;24.16;62.85
49393;BME280;35268;42.642;23.308;2022-08-23T12:03:00;93587.03;;;24.33;60.46
49393;BME280;35268;42.642;23.308;2022-08-23T12:06:02;93591.75;;;24.63;58.58
49393;BME280;35268;42.642;23.308;2022-08-23T12:24:43;93576.69;;;25.83;53.44
49393;BME280;35268;42.642;23.308;2022-08-23T12:27:45;93568.84;;;25.86;51.87
49393;BME280;35268;42.642;23.308;2022-08-23T12:32:57;93569.59;;;25.86;56.31
49393;BME280;35268;42.642;23.308;2022-08-23T12:46:41;93567.03;;;25.05;53.72
49393;BME280;35268;42.642;23.308;2022-08-23T12:49:09;93560.59;;;24.91;54.69
49393;BME280;35268;42.642;23.308;2022-08-23T12:51:48;93567.16;;;24.97;56.02
49393;BME280;35268;42.642;23.308;2022-08-23T12:54:18;93561.56;;;25.05;55.96
49393;BME280;35268;42.642;23.308;2022-08-23T12:56:50;93563.84;;;25.10;56.61
49393;BME280;35268;42.642;23.308;2022-08-23T12:59:39;93564.22;;;25.12;60.61
49393;BME280;35268;42.642;23.308;2022-08-23T13:02:15;93560.59;;;24.91;63.45
49393;BME280;35268;42.642;23.308;2022-08-23T13:04:42;93556.25;;;24.36;65.57
49393;BME280;35268;42.642;23.308;2022-08-23T13:07:15;93555.00;;;24.10;64.01
49393;BME280;35268;42.642;23.308;2022-08-23T13:09:42;93563.03;;;23.90;65.24
49393;BME280;35268;42.642;23.308;2022-08-23T13:12:09;93564.56;;;23.91;65.88
49393;BME280;35268;42.642;23.308;2022-08-23T13:22:36;93566.34;;;22.55;69.17
49393;BME280;35268;42.642;23.308;2022-08-23T13:25:03;93559.81;;;22.41;70.26
49393;BME280;35268;42.642;23.308;2022-08-23T13:27:36;93560.28;;;22.26;70.79
49393;BME280;35268;42.642;23.308;2022-08-23T13:32:49;93555.31;;;21.95;72.92
49393;BME280;35268;42.642;23.308;2022-08-23T13:35:41;93561.53;;;21.81;74.32
49393;BME280;35268;42.642;23.308;2022-08-23T13:43:21;93561.22;;;21.29;77.93
49393;BME280;35268;42.642;23.308;2022-08-23T13:45:53;93559.69;;;21.17;77.33
49393;BME280;35268;42.642;23.308;2022-08-23T13:48:22;93557.75;;;21.11;77.34
49393;BME280;35268;42.642;23.308;2022-08-23T13:50:48;93566.25;;;21.06;77.91
49393;BME280;35268;42.642;23.308;2022-08-23T13:53:15;93570.13;;;21.01;78.23
49393;BME280;35268;42.642;23.308;2022-08-23T13:55:45;93572.47;;;21.02;78.51
49393;BME280;35268;42.642;23.308;2022-08-23T14:00:50;93575.13;;;20.81;76.91
49393;BME280;35268;42.642;23.308;2022-08-23T14:03:15;93579.38;;;20.75;75.27
49393;BME280;35268;42.642;23.308;2022-08-23T14:05:41;93581.66;;;20.66;75.72
49393;BME280;35268;42.642;23.308;2022-08-23T14:08:06;93583.19;;;20.59;77.65
49393;BME280;35268;42.642;23.308;2022-08-23T14:10:33;93588.19;;;20.57;76.52
49393;BME280;35268;42.642;23.308;2022-08-23T14:12:59;93598.63;;;20.52;77.59
49393;BME280;35268;42.642;23.308;2022-08-23T14:15:26;93618.72;;;20.43;76.38
49393;BME280;35268;42.642;23.308;2022-08-23T14:17:52;93623.75;;;20.41;75.53
49393;BME280;35268;42.642;23.308;2022-08-23T14:20:20;93619.84;;;20.35;73.53
49393;BME280;35268;42.642;23.308;2022-08-23T14:22:46;93614.03;;;20.37;74.62
49393;BME280;35268;42.642;23.308;2022-08-23T14:25:12;93608.22;;;20.28;73.56
49393;BME280;35268;42.642;23.308;2022-08-23T14:27:43;93627.13;;;20.24;73.35
49393;BME280;35268;42.642;23.308;2022-08-23T14:30:14;93622.44;;;20.14;72.01
49393;BME280;35268;42.642;23.308;2022-08-23T14:32:43;93621.63;;;19.99;71.94
49393;BME280;35268;42.642;23.308;2022-08-23T14:35:08;93637.03;;;19.91;72.10
49393;BME280;35268;42.642;23.308;2022-08-23T14:37:34;93624.63;;;19.90;72.72
49393;BME280;35268;42.642;23.308;2022-08-23T14:39:59;93625.38;;;19.83;72.96
49393;BME280;35268;42.642;23.308;2022-08-23T14:42:25;93629.66;;;19.84;72.78
49393;BME280;35268;42.642;23.308;2022-08-23T14:44:50;93630.03;;;19.87;73.12
49393;BME280;35268;42.642;23.308;2022-08-23T14:47:17;93646.25;;;19.83;73.00
49393;BME280;35268;42.642;23.308;2022-08-23T14:49:42;93650.88;;;19.82;74.15
49393;BME280;35268;42.642;23.308;2022-08-23T14:52:08;93641.16;;;19.78;73.41